createdAt,value
2022-10-31T00:00:48.003Z,14.36
2022-10-31T00:03:15.924Z,14.09
2022-10-31T00:05:46.073Z,14.24
2022-10-31T00:08:13.800Z,14.04
2022-10-31T00:10:43.929Z,14.00
2022-10-31T00:13:12.809Z,14.13
2022-10-31T00:15:42.097Z,14.15
2022-10-31T00:18:11.274Z,14.05
2022-10-31T00:20:39.271Z,13.62
2022-10-31T00:23:08.407Z,13.59
2022-10-31T00:25:38.479Z,13.60
2022-10-31T00:28:09.551Z,13.94
2022-10-31T00:30:37.275Z,14.23
2022-10-31T00:33:05.622Z,14.15
2022-10-31T00:35:34.133Z,14.04
2022-10-31T00:38:02.004Z,14.12
2022-10-31T00:40:29.745Z,14.21
2022-10-31T00:42:57.767Z,14.36
2022-10-31T00:45:27.286Z,14.16
2022-10-31T00:47:54.996Z,14.16
2022-10-31T00:50:22.671Z,13.84
2022-10-31T00:52:50.473Z,13.68
2022-10-31T00:55:18.153Z,13.76
2022-10-31T00:57:48.467Z,13.94
2022-10-31T01:00:16.925Z,13.91
2022-10-31T01:02:47.292Z,14.06
2022-10-31T01:05:15.411Z,13.84
2022-10-31T01:07:43.941Z,13.86
2022-10-31T01:10:13.177Z,13.65
2022-10-31T01:12:42.229Z,13.75
2022-10-31T01:15:11.418Z,13.49
2022-10-31T01:17:39.233Z,13.76
2022-10-31T01:20:11.929Z,13.68
2022-10-31T01:22:39.952Z,13.51
2022-10-31T01:25:09.681Z,13.95
2022-10-31T01:27:37.574Z,13.76
2022-10-31T01:30:06.395Z,13.65
2022-10-31T01:32:34.128Z,13.26
2022-10-31T01:35:02.111Z,13.33
2022-10-31T01:37:33.035Z,13.01
2022-10-31T01:40:00.732Z,13.31
2022-10-31T01:42:28.437Z,13.62
2022-10-31T01:45:00.124Z,13.65
2022-10-31T01:47:43.271Z,13.61
2022-10-31T01:50:25.698Z,13.11
2022-10-31T01:52:55.498Z,13.55
2022-10-31T01:55:29.996Z,13.65
2022-10-31T01:58:03.894Z,13.04
2022-10-31T02:00:32.017Z,13.33
2022-10-31T02:03:00.809Z,13.32
2022-10-31T02:05:31.596Z,13.55
2022-10-31T02:08:04.590Z,13.58
2022-10-31T02:10:34.911Z,13.54
2022-10-31T02:13:05.287Z,13.62
2022-10-31T02:15:34.186Z,13.64
2022-10-31T02:18:02.829Z,13.76
2022-10-31T02:20:35.170Z,13.60
2022-10-31T02:23:43.989Z,13.72
2022-10-31T02:26:34.135Z,13.33
2022-10-31T02:29:30.589Z,13.66
2022-10-31T02:32:07.729Z,13.46
2022-10-31T02:34:44.926Z,13.31
2022-10-31T02:37:18.933Z,13.38
2022-10-31T02:39:56.424Z,13.48
2022-10-31T02:42:31.365Z,13.34
2022-10-31T02:45:06.224Z,13.49
2022-10-31T02:47:38.761Z,13.45
2022-10-31T02:50:10.845Z,13.45
2022-10-31T02:52:38.602Z,13.39
2022-10-31T02:55:14.651Z,13.45
2022-10-31T02:57:43.845Z,13.29
2022-10-31T03:00:15.048Z,13.33
2022-10-31T03:02:58.591Z,13.21
2022-10-31T03:05:39.761Z,13.10
2022-10-31T03:08:16.749Z,13.28
2022-10-31T03:10:49.458Z,13.16
2022-10-31T03:13:29.994Z,13.07
2022-10-31T03:16:08.691Z,13.13
2022-10-31T03:18:42.865Z,13.02
2022-10-31T03:21:15.471Z,13.29
2022-10-31T03:23:46.855Z,13.17
2022-10-31T03:26:17.458Z,13.04
2022-10-31T03:28:48.456Z,12.90
2022-10-31T03:31:20.331Z,13.08
2022-10-31T03:33:51.356Z,13.10
2022-10-31T03:36:19.873Z,12.90
2022-10-31T03:38:48.649Z,12.89
2022-10-31T03:41:23.826Z,12.86
2022-10-31T03:44:03.073Z,12.72
2022-10-31T03:46:30.922Z,12.94
2022-10-31T03:49:01.468Z,12.92
2022-10-31T03:51:34.623Z,12.35
2022-10-31T03:54:10.894Z,12.57
2022-10-31T03:56:42.839Z,12.68
2022-10-31T03:59:17.479Z,12.84
2022-10-31T04:01:50.804Z,12.70
2022-10-31T04:04:21.595Z,12.74
2022-10-31T04:06:51.108Z,12.79
2022-10-31T04:09:21.470Z,12.63
2022-10-31T04:11:53.607Z,12.66
2022-10-31T04:14:23.473Z,12.92
2022-10-31T04:16:51.243Z,12.75
2022-10-31T04:19:20.449Z,12.62
2022-10-31T04:21:48.149Z,12.74
2022-10-31T04:24:15.898Z,12.82
2022-10-31T04:26:43.673Z,12.71
2022-10-31T04:29:11.400Z,12.76
2022-10-31T04:31:39.163Z,12.70
2022-10-31T04:34:08.280Z,12.69
2022-10-31T04:36:37.457Z,12.60
2022-10-31T04:39:05.492Z,12.85
2022-10-31T04:41:33.216Z,12.51
2022-10-31T04:44:00.931Z,12.79
2022-10-31T04:46:28.668Z,12.65
2022-10-31T04:48:56.545Z,12.63
2022-10-31T04:51:24.483Z,12.49
2022-10-31T04:53:53.592Z,12.59
2022-10-31T04:56:21.299Z,12.18
2022-10-31T04:58:49.076Z,12.45
2022-10-31T05:01:16.853Z,12.29
2022-10-31T05:03:44.743Z,12.47
2022-10-31T05:06:12.457Z,12.54
2022-10-31T05:08:40.498Z,12.57
2022-10-31T05:11:09.593Z,12.55
2022-10-31T05:13:37.315Z,12.70
2022-10-31T05:16:05.248Z,12.59
2022-10-31T05:18:33.425Z,13.12
2022-10-31T05:21:01.172Z,12.84
2022-10-31T05:23:28.870Z,13.11
2022-10-31T05:25:56.575Z,13.05
2022-10-31T05:28:25.731Z,12.90
2022-10-31T05:30:53.482Z,12.59
2022-10-31T05:33:21.203Z,12.90
2022-10-31T05:35:49.295Z,12.80
2022-10-31T05:38:17.132Z,13.21
2022-10-31T05:40:44.959Z,13.24
2022-10-31T05:43:12.664Z,13.18
2022-10-31T05:45:41.830Z,13.06
2022-10-31T05:48:10.364Z,13.25
2022-10-31T05:50:38.104Z,13.02
2022-10-31T05:53:08.053Z,13.20
2022-10-31T05:55:35.807Z,13.17
2022-10-31T05:58:04.021Z,12.89
2022-10-31T06:00:32.068Z,12.72
2022-10-31T06:03:02.203Z,12.68
2022-10-31T06:05:30.587Z,12.93
2022-10-31T06:07:58.869Z,13.36
2022-10-31T06:10:29.736Z,13.07
2022-10-31T06:12:57.505Z,12.97
2022-10-31T06:15:25.287Z,13.29
2022-10-31T06:18:05.980Z,13.70
2022-10-31T06:20:34.086Z,13.17
2022-10-31T06:23:02.601Z,13.35
2022-10-31T06:25:39.427Z,13.65
2022-10-31T06:28:07.362Z,13.93
2022-10-31T06:30:35.046Z,13.43
2022-10-31T06:33:07.512Z,13.29
2022-10-31T06:35:35.397Z,13.34
2022-10-31T06:38:03.544Z,12.89
2022-10-31T06:40:31.666Z,13.33
2022-10-31T06:43:00.219Z,13.06
2022-10-31T06:45:28.528Z,13.18
2022-10-31T06:48:16.735Z,13.16
2022-10-31T06:50:46.272Z,13.30
2022-10-31T06:53:15.066Z,13.55
2022-10-31T06:55:43.592Z,13.47
2022-10-31T06:58:13.067Z,13.60
2022-10-31T07:00:40.890Z,13.54
2022-10-31T07:03:12.354Z,13.78
2022-10-31T07:05:40.525Z,13.65
2022-10-31T07:08:13.060Z,14.42
2022-10-31T07:10:42.726Z,13.93
2022-10-31T07:13:13.502Z,14.49
2022-10-31T07:15:43.431Z,14.36
2022-10-31T07:18:13.457Z,14.92
2022-10-31T07:20:41.263Z,15.33
2022-10-31T07:23:11.596Z,15.55
2022-10-31T07:25:39.320Z,15.81
2022-10-31T07:28:10.102Z,15.90
2022-10-31T07:30:38.744Z,15.85
2022-10-31T07:33:07.234Z,16.22
2022-10-31T07:35:35.816Z,16.14
2022-10-31T07:38:12.293Z,16.28
2022-10-31T07:40:40.717Z,16.43
2022-10-31T07:43:10.126Z,16.33
2022-10-31T07:45:43.127Z,16.41
2022-10-31T07:48:11.043Z,16.69
2022-10-31T07:50:38.800Z,16.74
2022-10-31T07:53:09.982Z,16.89
2022-10-31T07:55:39.797Z,16.96
2022-10-31T07:58:09.848Z,17.01
2022-10-31T08:00:41.681Z,17.20
2022-10-31T08:03:11.351Z,17.20
2022-10-31T08:05:42.047Z,17.07
2022-10-31T08:08:10.696Z,17.34
2022-10-31T08:10:41.449Z,17.53
2022-10-31T08:13:10.889Z,17.68
2022-10-31T08:15:40.881Z,17.35
2022-10-31T08:18:12.824Z,17.31
2022-10-31T08:20:40.945Z,17.41
2022-10-31T08:23:12.119Z,17.84
2022-10-31T08:25:42.890Z,17.98
2022-10-31T08:28:12.328Z,17.84
2022-10-31T08:30:40.747Z,17.89
2022-10-31T08:33:11.674Z,18.00
2022-10-31T08:35:39.462Z,18.02
2022-10-31T08:38:08.729Z,18.11
2022-10-31T08:40:37.916Z,17.66
2022-10-31T08:43:08.539Z,17.70
2022-10-31T08:45:38.578Z,17.92
2022-10-31T08:48:08.547Z,18.20
2022-10-31T08:50:37.812Z,18.23
2022-10-31T08:53:09.879Z,18.14
2022-10-31T08:55:39.069Z,17.99
2022-10-31T08:58:14.691Z,18.08
2022-10-31T09:00:42.861Z,17.88
2022-10-31T09:03:13.859Z,17.86
2022-10-31T09:05:42.340Z,17.76
2022-10-31T09:08:16.027Z,17.75
2022-10-31T09:10:45.363Z,17.60
2022-10-31T09:13:16.344Z,17.32
2022-10-31T09:15:46.166Z,17.42
2022-10-31T09:18:15.068Z,17.46
2022-10-31T09:20:44.210Z,17.59
2022-10-31T09:23:13.581Z,17.70
2022-10-31T09:25:46.151Z,17.65
2022-10-31T09:28:20.372Z,17.81
2022-10-31T09:30:49.372Z,17.84
2022-10-31T09:33:17.105Z,17.57
2022-10-31T09:35:44.869Z,17.62
2022-10-31T09:38:15.545Z,17.54
2022-10-31T09:40:45.097Z,17.08
2022-10-31T09:43:26.328Z,17.72
2022-10-31T09:46:02.891Z,17.31
2022-10-31T09:48:45.201Z,17.50
2022-10-31T09:51:17.335Z,17.49
2022-10-31T09:53:51.362Z,18.00
2022-10-31T09:56:22.485Z,18.04
2022-10-31T09:58:56.210Z,17.98
2022-10-31T10:01:45.032Z,17.84
2022-10-31T10:04:28.705Z,18.00
2022-10-31T10:06:56.672Z,18.05
2022-10-31T10:09:28.131Z,18.17
2022-10-31T10:12:08.642Z,18.31
2022-10-31T10:14:56.049Z,18.44
2022-10-31T10:17:35.103Z,18.09
2022-10-31T10:20:20.922Z,18.22
2022-10-31T10:22:54.765Z,18.31
2022-10-31T10:25:24.869Z,18.50
2022-10-31T10:28:04.172Z,18.46
2022-10-31T10:30:39.306Z,18.13
2022-10-31T10:33:12.480Z,18.68
2022-10-31T10:35:45.138Z,18.61
2022-10-31T10:38:19.430Z,18.00
2022-10-31T10:40:48.375Z,18.17
2022-10-31T10:43:26.306Z,17.50
2022-10-31T10:46:35.891Z,17.89
2022-10-31T10:49:13.671Z,17.81
2022-10-31T10:51:58.306Z,17.08
2022-10-31T10:54:45.080Z,17.41
2022-10-31T10:57:34.785Z,17.54
2022-10-31T11:00:05.353Z,17.15
2022-10-31T11:02:35.132Z,17.29
2022-10-31T11:05:04.534Z,17.41
2022-10-31T11:07:40.370Z,17.41
2022-10-31T11:10:15.972Z,17.39
2022-10-31T11:12:45.227Z,17.19
2022-10-31T11:15:22.197Z,17.47
2022-10-31T11:17:54.483Z,17.27
2022-10-31T11:20:32.245Z,17.39
2022-10-31T11:23:18.438Z,17.22
2022-10-31T11:25:54.817Z,17.67
2022-10-31T11:28:22.635Z,17.20
2022-10-31T11:30:53.238Z,16.92
2022-10-31T11:33:31.634Z,16.75
2022-10-31T11:35:59.742Z,17.11
2022-10-31T11:38:34.697Z,17.27
2022-10-31T11:41:11.869Z,17.57
2022-10-31T11:43:41.049Z,17.30
2022-10-31T11:46:13.406Z,17.40
2022-10-31T11:48:49.561Z,17.17
2022-10-31T11:51:23.132Z,16.83
2022-10-31T11:53:56.921Z,16.94
2022-10-31T11:56:28.475Z,16.63
2022-10-31T11:59:01.301Z,16.77
2022-10-31T12:01:31.240Z,16.69
2022-10-31T12:04:10.657Z,17.20
2022-10-31T12:06:40.026Z,16.77
2022-10-31T12:09:20.862Z,17.27
2022-10-31T12:12:05.056Z,17.11
2022-10-31T12:14:39.104Z,16.91
2022-10-31T12:17:15.569Z,16.92
2022-10-31T12:20:02.781Z,17.35
2022-10-31T12:22:41.807Z,16.68
2022-10-31T12:25:34.699Z,16.80
2022-10-31T12:28:16.406Z,17.09
2022-10-31T12:30:58.161Z,17.21
2022-10-31T12:33:41.284Z,16.66
2022-10-31T12:36:30.643Z,16.97
2022-10-31T12:39:25.310Z,17.03
2022-10-31T12:41:58.119Z,16.83
2022-10-31T12:44:50.781Z,17.04
2022-10-31T12:47:34.972Z,17.34
2022-10-31T12:50:18.733Z,17.21
2022-10-31T12:52:58.994Z,16.77
2022-10-31T12:55:50.107Z,16.93
2022-10-31T12:58:24.132Z,16.78
2022-10-31T13:00:58.778Z,17.29
2022-10-31T13:03:34.616Z,17.10
2022-10-31T13:06:07.613Z,16.84
2022-10-31T13:08:43.846Z,17.13
2022-10-31T13:11:17.591Z,17.24
2022-10-31T13:13:50.600Z,16.77
2022-10-31T13:16:20.648Z,16.58
2022-10-31T13:18:53.061Z,16.66
2022-10-31T13:21:24.281Z,16.48
2022-10-31T13:23:53.783Z,16.91
2022-10-31T13:26:33.662Z,16.49
2022-10-31T13:29:08.785Z,16.82
2022-10-31T13:31:36.558Z,16.74
2022-10-31T13:34:11.478Z,16.53
2022-10-31T13:36:44.167Z,17.11
2022-10-31T13:39:25.525Z,16.48
2022-10-31T13:41:59.241Z,16.72
2022-10-31T13:44:30.530Z,16.11
2022-10-31T13:47:00.220Z,15.98
2022-10-31T13:49:40.371Z,15.97
2022-10-31T13:52:23.904Z,16.09
2022-10-31T13:54:56.991Z,15.95
2022-10-31T13:57:34.388Z,16.77
2022-10-31T14:00:09.505Z,16.17
2022-10-31T14:02:38.860Z,16.74
2022-10-31T14:05:25.862Z,16.53
2022-10-31T14:07:55.423Z,16.67
2022-10-31T14:10:29.472Z,16.61
2022-10-31T14:13:06.699Z,16.49
2022-10-31T14:15:34.826Z,16.46
2022-10-31T14:18:05.009Z,16.38
2022-10-31T14:20:39.876Z,16.46
2022-10-31T14:23:29.330Z,16.42
2022-10-31T14:26:09.473Z,16.34
2022-10-31T14:28:38.035Z,16.17
2022-10-31T14:31:35.944Z,16.26
2022-10-31T14:34:09.364Z,16.09
2022-10-31T14:36:46.073Z,16.86
2022-10-31T14:39:20.528Z,16.70
2022-10-31T14:42:03.281Z,16.69
2022-10-31T14:44:55.220Z,16.45
2022-10-31T14:47:36.492Z,16.30
2022-10-31T14:50:23.350Z,16.40
2022-10-31T14:52:53.155Z,16.59
2022-10-31T14:55:21.823Z,16.56
2022-10-31T14:57:53.177Z,16.02
2022-10-31T15:00:23.457Z,16.40
2022-10-31T15:03:00.892Z,16.37
2022-10-31T15:05:30.369Z,16.48
2022-10-31T15:07:59.731Z,16.53
2022-10-31T15:10:30.712Z,16.38
2022-10-31T15:12:58.902Z,16.35
2022-10-31T15:15:28.496Z,15.99
2022-10-31T15:18:01.151Z,16.23
2022-10-31T15:20:32.649Z,16.43
2022-10-31T15:23:02.032Z,16.42
2022-10-31T15:25:37.163Z,16.55
2022-10-31T15:28:15.144Z,16.21
2022-10-31T15:30:52.663Z,16.44
2022-10-31T15:33:25.894Z,16.47
2022-10-31T15:35:58.760Z,16.70
2022-10-31T15:38:27.734Z,16.33
2022-10-31T15:41:00.648Z,16.42
2022-10-31T15:43:33.742Z,16.32
2022-10-31T15:46:02.434Z,16.12
2022-10-31T15:48:32.891Z,16.43
2022-10-31T15:51:01.167Z,15.84
2022-10-31T15:53:36.840Z,16.13
2022-10-31T15:56:08.042Z,16.33
2022-10-31T15:58:43.787Z,16.34
2022-10-31T16:01:25.563Z,15.64
2022-10-31T16:04:07.654Z,15.50
2022-10-31T16:06:36.691Z,15.47
2022-10-31T16:09:06.174Z,15.77
2022-10-31T16:11:39.223Z,16.11
2022-10-31T16:14:09.575Z,15.96
2022-10-31T16:16:44.688Z,16.30
2022-10-31T16:19:20.832Z,16.38
2022-10-31T16:21:50.817Z,16.10
2022-10-31T16:24:24.640Z,16.22
2022-10-31T16:26:54.636Z,16.44
2022-10-31T16:29:34.330Z,15.88
2022-10-31T16:32:02.268Z,16.13
2022-10-31T16:34:31.502Z,15.94
2022-10-31T16:36:59.162Z,16.30
2022-10-31T16:39:26.892Z,16.12
2022-10-31T16:41:57.996Z,15.57
2022-10-31T16:44:27.672Z,15.99
2022-10-31T16:47:11.163Z,15.89
2022-10-31T16:49:40.287Z,16.03
2022-10-31T16:52:08.151Z,15.89
2022-10-31T16:54:36.162Z,15.77
2022-10-31T16:57:06.615Z,16.00
2022-10-31T16:59:37.206Z,16.11
2022-10-31T17:02:06.350Z,16.05
2022-10-31T17:04:34.165Z,16.49
2022-10-31T17:07:03.281Z,16.35
2022-10-31T17:09:31.073Z,16.38
2022-10-31T17:11:59.580Z,16.41
2022-10-31T17:14:27.777Z,15.92
2022-10-31T17:16:58.107Z,16.02
2022-10-31T17:19:25.919Z,15.99
2022-10-31T17:21:53.913Z,15.75
2022-10-31T17:24:23.184Z,16.27
2022-10-31T17:26:50.955Z,15.89
2022-10-31T17:29:18.651Z,16.07
2022-10-31T17:31:46.457Z,16.36
2022-10-31T17:34:14.137Z,16.39
2022-10-31T17:36:41.842Z,16.05
2022-10-31T17:39:10.887Z,16.20
2022-10-31T17:41:39.975Z,16.43
2022-10-31T17:44:07.677Z,15.98
2022-10-31T17:46:35.505Z,16.02
2022-10-31T17:49:04.970Z,16.16
2022-10-31T17:51:32.758Z,16.24
2022-10-31T17:54:00.478Z,15.95
2022-10-31T17:56:28.397Z,16.15
2022-10-31T17:58:58.258Z,16.08
2022-10-31T18:01:26.298Z,15.84
2022-10-31T18:03:54.213Z,15.69
2022-10-31T18:06:23.992Z,15.97
2022-10-31T18:08:51.718Z,16.10
2022-10-31T18:11:22.960Z,16.08
2022-10-31T18:13:57.583Z,15.85
2022-10-31T18:16:25.866Z,16.10
2022-10-31T18:18:54.744Z,16.01
2022-10-31T18:21:22.484Z,16.01
2022-10-31T18:23:54.957Z,16.02
2022-10-31T18:26:23.664Z,16.27
2022-10-31T18:28:51.818Z,16.12
2022-10-31T18:31:21.258Z,16.29
2022-10-31T18:33:49.023Z,15.91
2022-10-31T18:36:16.710Z,16.02
2022-10-31T18:38:45.974Z,15.86
2022-10-31T18:41:15.010Z,16.10
2022-10-31T18:43:43.259Z,15.91
2022-10-31T18:46:17.133Z,16.05
2022-10-31T18:48:47.200Z,16.25
2022-10-31T18:51:18.260Z,16.10
2022-10-31T18:53:52.769Z,16.47
2022-10-31T18:56:24.515Z,16.03
2022-10-31T18:58:52.586Z,16.12
2022-10-31T19:01:22.314Z,16.08
2022-10-31T19:03:56.439Z,15.89
2022-10-31T19:06:24.445Z,15.92
2022-10-31T19:08:58.508Z,15.96
2022-10-31T19:11:26.516Z,16.13
2022-10-31T19:13:54.267Z,15.83
2022-10-31T19:16:22.153Z,15.86
2022-10-31T19:18:49.930Z,15.84
2022-10-31T19:21:19.443Z,16.22
2022-10-31T19:23:47.386Z,15.84
2022-10-31T19:26:15.355Z,15.99
2022-10-31T19:28:43.239Z,16.11
2022-10-31T19:31:11.365Z,16.00
2022-10-31T19:33:39.209Z,15.77
2022-10-31T19:36:09.670Z,15.34
2022-10-31T19:38:41.992Z,15.15
2022-10-31T19:41:11.524Z,15.03
2022-10-31T19:43:39.818Z,15.14
2022-10-31T19:46:17.369Z,15.62
2022-10-31T19:48:57.276Z,15.39
2022-10-31T19:51:25.003Z,15.84
2022-10-31T19:53:55.184Z,15.73
2022-10-31T19:56:24.496Z,15.93
2022-10-31T19:58:52.293Z,15.66
2022-10-31T20:01:24.285Z,15.80
2022-10-31T20:03:52.563Z,15.85
2022-10-31T20:06:23.678Z,15.88
2022-10-31T20:08:55.066Z,16.03
2022-10-31T20:11:24.927Z,15.90
2022-10-31T20:13:53.360Z,15.84
2022-10-31T20:16:21.096Z,15.93
2022-10-31T20:18:48.919Z,15.95
2022-10-31T20:21:22.339Z,15.82
2022-10-31T20:23:50.547Z,15.72
2022-10-31T20:26:22.364Z,15.74
2022-10-31T20:28:51.724Z,15.84
2022-10-31T20:31:21.525Z,15.55
2022-10-31T20:33:49.928Z,15.65
2022-10-31T20:36:19.487Z,15.74
2022-10-31T20:38:47.805Z,15.74
2022-10-31T20:41:18.032Z,15.67
2022-10-31T20:43:46.188Z,15.66
2022-10-31T20:46:19.327Z,16.02
2022-10-31T20:48:48.451Z,16.09
2022-10-31T20:51:21.380Z,16.04
2022-10-31T20:53:49.426Z,15.77
2022-10-31T20:56:18.737Z,15.79
2022-10-31T20:58:46.997Z,15.77
2022-10-31T21:01:18.270Z,15.76
2022-10-31T21:03:46.448Z,16.03
2022-10-31T21:06:14.826Z,15.85
2022-10-31T21:08:43.394Z,15.86
2022-10-31T21:11:12.660Z,15.75
2022-10-31T21:13:41.929Z,15.85
2022-10-31T21:16:12.641Z,15.88
2022-10-31T21:18:43.363Z,16.13
2022-10-31T21:21:12.933Z,16.14
2022-10-31T21:23:41.331Z,15.82
2022-10-31T21:26:11.021Z,15.69
2022-10-31T21:28:39.074Z,15.72
2022-10-31T21:31:08.233Z,15.79
2022-10-31T21:33:36.924Z,15.77
2022-10-31T21:36:06.994Z,15.64
2022-10-31T21:38:35.652Z,15.38
2022-10-31T21:41:05.352Z,15.68
2022-10-31T21:43:35.724Z,15.70
2022-10-31T21:46:07.766Z,15.54
2022-10-31T21:48:39.039Z,15.48
2022-10-31T21:51:10.392Z,15.69
2022-10-31T21:53:56.441Z,15.58
2022-10-31T21:56:24.589Z,15.64
2022-10-31T21:58:53.372Z,15.68
2022-10-31T22:01:21.791Z,15.97
2022-10-31T22:03:50.354Z,15.81
2022-10-31T22:06:19.548Z,15.81
2022-10-31T22:08:47.753Z,15.83
2022-10-31T22:11:17.480Z,15.80
2022-10-31T22:13:47.094Z,15.73
2022-10-31T22:16:17.252Z,15.40
2022-10-31T22:18:45.527Z,15.53
2022-10-31T22:21:15.887Z,15.66
2022-10-31T22:23:45.639Z,15.35
2022-10-31T22:26:16.264Z,15.35
2022-10-31T22:28:45.756Z,15.52
2022-10-31T22:31:15.246Z,15.36
2022-10-31T22:33:43.055Z,15.39
2022-10-31T22:36:12.488Z,15.27
2022-10-31T22:38:42.404Z,14.98
2022-10-31T22:41:13.182Z,15.36
2022-10-31T22:43:41.338Z,15.05
2022-10-31T22:46:16.247Z,15.27
2022-10-31T22:48:46.157Z,15.37
2022-10-31T22:51:16.716Z,15.32
2022-10-31T22:53:47.474Z,15.12
2022-10-31T22:56:19.026Z,15.40
2022-10-31T22:58:53.110Z,14.89
2022-10-31T23:01:22.683Z,14.87
2022-10-31T23:03:51.544Z,15.25
2022-10-31T23:06:21.193Z,15.30
2022-10-31T23:08:49.849Z,14.94
2022-10-31T23:11:21.535Z,14.85
2022-10-31T23:14:08.859Z,15.08
2022-10-31T23:16:37.306Z,14.81
2022-10-31T23:19:08.086Z,14.77
2022-10-31T23:21:54.735Z,14.68
2022-10-31T23:24:34.749Z,14.64
2022-10-31T23:27:11.207Z,14.54
2022-10-31T23:29:45.428Z,14.55
2022-10-31T23:32:18.908Z,14.52
2022-10-31T23:34:47.442Z,14.65
2022-10-31T23:37:15.743Z,14.67
2022-10-31T23:39:43.735Z,14.76
2022-10-31T23:42:13.781Z,14.75
2022-10-31T23:44:41.520Z,14.65
2022-10-31T23:47:09.895Z,14.45
2022-10-31T23:49:37.763Z,14.84
2022-10-31T23:52:06.351Z,14.93
2022-10-31T23:54:35.072Z,15.04
2022-10-31T23:57:03.183Z,14.84
2022-10-31T23:59:32.911Z,15.06
